createdAt,value
2019-06-27T00:00:12.270Z,56.00
2019-06-27T00:02:40.709Z,56.10
2019-06-27T00:05:09.266Z,56.40
2019-06-27T00:07:37.975Z,56.50
2019-06-27T00:10:07.902Z,56.30
2019-06-27T00:12:36.301Z,56.80
2019-06-27T00:15:05.369Z,56.90
2019-06-27T00:17:34.065Z,56.90
2019-06-27T00:20:02.891Z,57.00
2019-06-27T00:22:31.384Z,57.30
2019-06-27T00:24:59.798Z,57.50
2019-06-27T00:27:28.516Z,57.70
2019-06-27T00:29:57.316Z,57.80
2019-06-27T00:32:25.717Z,57.80
2019-06-27T00:34:54.481Z,57.80
2019-06-27T00:37:23.485Z,57.90
2019-06-27T00:39:51.885Z,58.10
2019-06-27T00:42:20.598Z,58.10
2019-06-27T00:44:49.002Z,58.30
2019-06-27T00:47:17.416Z,58.40
2019-06-27T00:49:46.122Z,58.50
2019-06-27T00:52:14.982Z,58.60
2019-06-27T00:54:43.733Z,58.60
2019-06-27T00:57:14.365Z,58.50
2019-06-27T00:59:42.729Z,58.80
2019-06-27T01:02:11.404Z,58.80
2019-06-27T01:04:40.043Z,58.90
2019-06-27T01:07:08.467Z,58.90
2019-06-27T01:09:36.869Z,59.10
2019-06-27T01:12:05.446Z,58.70
2019-06-27T01:14:33.885Z,58.60
2019-06-27T01:17:02.676Z,58.90
2019-06-27T01:19:31.315Z,58.80
2019-06-27T01:22:00.242Z,58.70
2019-06-27T01:24:29.018Z,58.80
2019-06-27T01:26:57.906Z,58.80
2019-06-27T01:29:26.360Z,58.70
2019-06-27T01:31:55.289Z,58.90
2019-06-27T01:34:23.699Z,59.00
2019-06-27T01:36:52.464Z,59.10
2019-06-27T01:39:20.995Z,59.20
2019-06-27T01:41:49.397Z,59.10
2019-06-27T01:44:36.031Z,59.10
2019-06-27T01:47:05.157Z,59.30
2019-06-27T01:49:34.763Z,59.30
2019-06-27T01:52:03.558Z,59.50
2019-06-27T01:54:32.041Z,59.40
2019-06-27T01:57:00.613Z,59.50
2019-06-27T01:59:29.039Z,59.70
2019-06-27T02:01:57.595Z,59.50
2019-06-27T02:04:26.269Z,59.60
2019-06-27T02:06:54.774Z,59.70
2019-06-27T02:09:23.183Z,59.60
2019-06-27T02:11:51.588Z,59.80
2019-06-27T02:14:20.317Z,59.90
2019-06-27T02:16:48.727Z,59.90
2019-06-27T02:19:17.141Z,59.70
2019-06-27T02:21:45.900Z,59.60
2019-06-27T02:24:14.299Z,59.30
2019-06-27T02:26:42.745Z,59.20
2019-06-27T02:29:11.181Z,59.20
2019-06-27T02:31:42.009Z,59.60
2019-06-27T02:34:10.406Z,59.60
2019-06-27T02:36:38.852Z,59.60
2019-06-27T02:39:07.528Z,59.50
2019-06-27T02:41:36.003Z,59.50
2019-06-27T02:44:04.728Z,59.60
2019-06-27T02:46:33.218Z,59.70
2019-06-27T02:49:01.651Z,59.90
2019-06-27T02:51:30.139Z,60.00
2019-06-27T02:53:58.561Z,60.10
2019-06-27T02:56:27.274Z,59.90
2019-06-27T02:58:55.790Z,59.80
2019-06-27T03:01:24.283Z,60.00
2019-06-27T03:03:52.978Z,60.40
2019-06-27T03:06:21.606Z,60.50
2019-06-27T03:08:50.276Z,60.80
2019-06-27T03:11:18.756Z,61.00
2019-06-27T03:13:47.351Z,61.10
2019-06-27T03:16:15.937Z,61.10
2019-06-27T03:18:44.594Z,61.20
2019-06-27T03:21:13.315Z,61.50
2019-06-27T03:23:41.708Z,61.40
2019-06-27T03:26:11.306Z,61.50
2019-06-27T03:28:51.775Z,61.20
2019-06-27T03:31:09.940Z,61.50
2019-06-27T03:33:38.387Z,61.60
2019-06-27T03:36:06.823Z,61.60
2019-06-27T03:38:35.249Z,60.90
2019-06-27T03:41:03.730Z,60.90
2019-06-27T03:43:32.146Z,61.00
2019-06-27T03:46:00.840Z,60.90
2019-06-27T03:48:29.234Z,61.10
2019-06-27T03:50:58.138Z,61.20
2019-06-27T03:53:26.545Z,61.40
2019-06-27T03:55:55.027Z,61.40
2019-06-27T03:58:23.477Z,61.20
2019-06-27T04:00:52.382Z,61.30
2019-06-27T04:03:21.037Z,61.40
2019-06-27T04:05:49.463Z,61.50
2019-06-27T04:08:17.943Z,61.30
2019-06-27T04:10:46.344Z,61.20
2019-06-27T04:13:14.861Z,61.30
2019-06-27T04:15:43.351Z,61.40
2019-06-27T04:18:11.916Z,61.30
2019-06-27T04:20:40.392Z,61.40
2019-06-27T04:23:10.061Z,61.30
2019-06-27T04:25:38.754Z,61.40
2019-06-27T04:28:07.550Z,61.30
2019-06-27T04:30:35.945Z,61.30
2019-06-27T04:33:04.339Z,61.50
2019-06-27T04:35:33.204Z,61.30
2019-06-27T04:38:01.670Z,61.40
2019-06-27T04:40:30.381Z,61.40
2019-06-27T04:42:58.876Z,61.30
2019-06-27T04:45:27.391Z,61.10
2019-06-27T04:47:55.844Z,60.90
2019-06-27T04:50:24.279Z,60.90
2019-06-27T04:52:52.719Z,60.60
2019-06-27T04:55:21.127Z,60.40
2019-06-27T04:57:49.870Z,60.30
2019-06-27T05:00:24.622Z,60.40
2019-06-27T05:02:53.027Z,60.70
2019-06-27T05:05:21.463Z,60.50
2019-06-27T05:07:49.854Z,60.10
2019-06-27T05:10:18.252Z,59.90
2019-06-27T05:12:46.921Z,59.60
2019-06-27T05:15:15.378Z,59.50
2019-06-27T05:17:44.016Z,59.70
2019-06-27T05:20:13.448Z,59.90
2019-06-27T05:22:41.839Z,60.10
2019-06-27T05:25:10.610Z,59.70
2019-06-27T05:27:39.382Z,59.40
2019-06-27T05:30:10.263Z,59.10
2019-06-27T05:32:38.600Z,59.00
2019-06-27T05:35:07.013Z,58.90
2019-06-27T05:37:35.410Z,58.80
2019-06-27T05:40:07.031Z,58.60
2019-06-27T05:42:35.844Z,58.60
2019-06-27T05:45:05.965Z,58.20
2019-06-27T05:47:34.434Z,58.10
2019-06-27T05:50:04.123Z,57.70
2019-06-27T05:52:32.825Z,57.60
2019-06-27T05:55:01.975Z,57.20
2019-06-27T05:57:30.705Z,57.10
2019-06-27T05:59:59.102Z,57.40
2019-06-27T06:02:27.505Z,57.00
2019-06-27T06:04:56.287Z,56.90
2019-06-27T06:07:24.967Z,56.90
2019-06-27T06:09:53.658Z,56.40
2019-06-27T06:12:23.041Z,56.70
2019-06-27T06:14:51.486Z,56.90
2019-06-27T06:17:19.967Z,56.20
2019-06-27T06:19:48.415Z,56.00
2019-06-27T06:22:17.137Z,56.10
2019-06-27T06:24:45.562Z,55.40
2019-06-27T06:27:14.068Z,55.50
2019-06-27T06:29:42.485Z,54.70
2019-06-27T06:32:11.158Z,54.10
2019-06-27T06:34:39.699Z,53.70
2019-06-27T06:37:08.304Z,53.50
2019-06-27T06:39:36.680Z,54.00
2019-06-27T06:42:05.263Z,53.90
2019-06-27T06:44:33.992Z,53.00
2019-06-27T06:47:02.693Z,53.20
2019-06-27T06:49:31.102Z,53.20
2019-06-27T06:51:59.761Z,52.60
2019-06-27T06:54:28.169Z,52.10
2019-06-27T06:56:56.663Z,53.00
2019-06-27T06:59:25.567Z,53.10
2019-06-27T07:01:54.045Z,52.80
2019-06-27T07:04:22.809Z,52.80
2019-06-27T07:06:51.511Z,52.40
2019-06-27T07:09:19.910Z,52.10
2019-06-27T07:11:48.347Z,51.50
2019-06-27T07:14:17.077Z,50.70
2019-06-27T07:16:45.942Z,50.90
2019-06-27T07:19:14.871Z,49.90
2019-06-27T07:21:43.339Z,50.30
2019-06-27T07:24:11.757Z,50.80
2019-06-27T07:26:40.150Z,50.40
2019-06-27T07:29:08.642Z,50.10
2019-06-27T07:31:37.105Z,49.20
2019-06-27T07:34:05.841Z,48.50
2019-06-27T07:36:34.278Z,48.50
2019-06-27T07:39:02.691Z,49.30
2019-06-27T07:41:31.153Z,49.40
2019-06-27T07:44:00.354Z,48.80
2019-06-27T07:46:29.401Z,49.30
2019-06-27T07:48:57.825Z,49.80
2019-06-27T07:51:26.311Z,49.80
2019-06-27T07:53:55.102Z,49.80
2019-06-27T07:56:24.465Z,49.20
2019-06-27T07:58:53.179Z,47.90
2019-06-27T08:01:34.493Z,48.10
2019-06-27T08:03:51.738Z,48.30
2019-06-27T08:06:20.161Z,48.00
2019-06-27T08:08:48.948Z,47.50
2019-06-27T08:11:17.357Z,46.90
2019-06-27T08:13:45.822Z,46.70
2019-06-27T08:16:14.340Z,46.40
2019-06-27T08:18:42.768Z,47.10
2019-06-27T08:21:11.509Z,46.40
2019-06-27T08:23:41.819Z,46.60
2019-06-27T08:26:10.337Z,45.90
2019-06-27T08:28:38.890Z,45.70
2019-06-27T08:31:07.428Z,45.80
2019-06-27T08:33:36.168Z,46.10
2019-06-27T08:36:04.600Z,46.30
2019-06-27T08:38:33.051Z,45.60
2019-06-27T08:41:01.812Z,45.50
2019-06-27T08:43:30.225Z,45.10
2019-06-27T08:45:58.897Z,44.60
2019-06-27T08:48:27.362Z,44.80
2019-06-27T08:50:56.181Z,44.50
2019-06-27T08:53:24.578Z,44.30
2019-06-27T08:55:53.006Z,44.10
2019-06-27T08:58:21.423Z,44.20
2019-06-27T09:00:50.114Z,44.20
2019-06-27T09:03:18.814Z,44.10
2019-06-27T09:05:47.500Z,44.20
2019-06-27T09:08:15.954Z,44.10
2019-06-27T09:10:44.841Z,43.20
2019-06-27T09:13:13.271Z,42.80
2019-06-27T09:15:41.733Z,42.40
2019-06-27T09:18:10.159Z,42.80
2019-06-27T09:20:38.551Z,42.80
2019-06-27T09:23:07.017Z,43.00
2019-06-27T09:25:35.457Z,42.90
2019-06-27T09:28:04.174Z,41.90
2019-06-27T09:30:32.671Z,41.50
2019-06-27T09:33:01.565Z,40.90
2019-06-27T09:35:29.952Z,40.70
2019-06-27T09:37:58.354Z,40.40
2019-06-27T09:40:27.131Z,39.50
2019-06-27T09:42:55.547Z,39.00
2019-06-27T09:45:24.632Z,38.80
2019-06-27T09:47:53.078Z,38.50
2019-06-27T09:50:21.880Z,38.00
2019-06-27T09:52:50.563Z,37.40
2019-06-27T09:55:19.934Z,36.60
2019-06-27T09:57:48.344Z,36.50
2019-06-27T10:00:17.772Z,36.80
2019-06-27T10:02:47.055Z,36.70
2019-06-27T10:05:16.076Z,37.50
2019-06-27T10:07:45.717Z,37.80
2019-06-27T10:10:15.941Z,38.30
2019-06-27T10:12:44.623Z,37.90
2019-06-27T10:15:13.579Z,37.80
2019-06-27T10:17:42.085Z,38.00
2019-06-27T10:20:12.622Z,38.30
2019-06-27T10:22:41.009Z,38.40
2019-06-27T10:25:09.523Z,38.40
2019-06-27T10:27:37.987Z,38.70
2019-06-27T10:30:08.070Z,38.10
2019-06-27T10:32:36.522Z,38.40
2019-06-27T10:35:07.266Z,38.30
2019-06-27T10:37:35.669Z,37.90
2019-06-27T10:40:09.707Z,37.70
2019-06-27T10:42:38.183Z,37.50
2019-06-27T10:45:10.067Z,37.40
2019-06-27T10:47:38.548Z,37.40
2019-06-27T10:50:07.554Z,37.30
2019-06-27T10:52:36.153Z,36.80
2019-06-27T10:55:05.636Z,37.00
2019-06-27T10:57:34.037Z,36.70
2019-06-27T11:00:02.575Z,37.20
2019-06-27T11:02:31.012Z,36.90
2019-06-27T11:04:59.437Z,37.20
2019-06-27T11:07:28.104Z,37.40
2019-06-27T11:09:56.574Z,37.10
2019-06-27T11:12:25.245Z,36.40
2019-06-27T11:14:59.082Z,35.90
2019-06-27T11:17:24.044Z,35.50
2019-06-27T11:19:53.018Z,35.50
2019-06-27T11:22:21.518Z,35.70
2019-06-27T11:24:50.217Z,36.20
2019-06-27T11:27:18.612Z,35.70
2019-06-27T11:29:47.247Z,35.90
2019-06-27T11:32:16.152Z,36.30
2019-06-27T11:34:44.871Z,35.50
2019-06-27T11:37:13.270Z,35.50
2019-06-27T11:39:41.934Z,35.00
2019-06-27T11:42:10.342Z,35.20
2019-06-27T11:44:39.011Z,34.70
2019-06-27T11:47:07.451Z,33.80
2019-06-27T11:49:36.107Z,34.00
2019-06-27T11:52:05.012Z,34.60
2019-06-27T11:54:33.679Z,34.50
2019-06-27T11:57:02.193Z,34.00
2019-06-27T11:59:30.680Z,33.90
2019-06-27T12:01:59.105Z,33.90
2019-06-27T12:04:27.837Z,34.10
2019-06-27T12:06:57.123Z,35.70
2019-06-27T12:09:25.919Z,36.10
2019-06-27T12:11:54.540Z,35.70
2019-06-27T12:14:23.201Z,35.20
2019-06-27T12:16:51.902Z,35.60
2019-06-27T12:19:20.390Z,36.10
2019-06-27T12:21:49.088Z,36.40
2019-06-27T12:24:17.498Z,35.80
2019-06-27T12:26:45.894Z,35.80
2019-06-27T12:29:14.287Z,36.00
2019-06-27T12:31:43.060Z,36.20
2019-06-27T12:34:11.446Z,35.80
2019-06-27T12:36:39.841Z,35.70
2019-06-27T12:39:08.611Z,35.40
2019-06-27T12:41:37.465Z,35.70
2019-06-27T12:44:08.706Z,35.20
2019-06-27T12:46:37.214Z,36.20
2019-06-27T12:49:05.695Z,35.40
2019-06-27T12:51:35.495Z,35.20
2019-06-27T12:54:06.334Z,35.20
2019-06-27T12:56:35.031Z,35.40
2019-06-27T12:59:03.448Z,34.50
2019-06-27T13:01:32.119Z,34.20
2019-06-27T13:04:00.526Z,34.00
2019-06-27T13:06:28.991Z,34.00
2019-06-27T13:08:57.481Z,33.90
2019-06-27T13:11:25.887Z,34.20
2019-06-27T13:13:54.354Z,34.20
2019-06-27T13:16:22.806Z,33.90
2019-06-27T13:18:51.193Z,34.10
2019-06-27T13:21:19.899Z,34.10
2019-06-27T13:23:49.088Z,34.40
2019-06-27T13:26:17.553Z,34.80
2019-06-27T13:28:46.021Z,35.10
2019-06-27T13:31:14.677Z,35.40
2019-06-27T13:33:43.330Z,35.60
2019-06-27T13:36:11.741Z,35.70
2019-06-27T13:38:40.519Z,35.70
2019-06-27T13:41:09.264Z,35.90
2019-06-27T13:43:37.686Z,36.00
2019-06-27T13:46:06.148Z,35.90
2019-06-27T13:48:34.875Z,36.00
2019-06-27T13:51:03.311Z,36.60
2019-06-27T13:53:32.069Z,36.40
2019-06-27T13:56:00.728Z,36.40
2019-06-27T13:58:29.142Z,37.10
2019-06-27T14:00:57.575Z,37.20
2019-06-27T14:03:25.981Z,36.90
2019-06-27T14:05:54.393Z,35.70
2019-06-27T14:08:26.075Z,35.20
2019-06-27T14:10:52.949Z,36.00
2019-06-27T14:13:21.485Z,35.60
2019-06-27T14:15:50.559Z,35.60
2019-06-27T14:18:19.598Z,35.70
2019-06-27T14:20:48.107Z,35.90
2019-06-27T14:23:17.146Z,36.50
2019-06-27T14:25:45.542Z,35.90
2019-06-27T14:28:13.950Z,36.30
2019-06-27T14:30:42.709Z,35.90
2019-06-27T14:33:11.397Z,35.70
2019-06-27T14:35:39.789Z,36.20
2019-06-27T14:38:08.209Z,36.10
2019-06-27T14:40:36.660Z,35.70
2019-06-27T14:43:05.073Z,36.00
2019-06-27T14:45:33.746Z,36.10
2019-06-27T14:48:02.624Z,35.30
2019-06-27T14:50:31.131Z,34.80
2019-06-27T14:52:59.645Z,35.90
2019-06-27T14:55:28.294Z,35.50
2019-06-27T14:57:56.713Z,35.20
2019-06-27T15:00:26.263Z,34.90
2019-06-27T15:02:54.792Z,34.80
2019-06-27T15:05:32.400Z,34.50
2019-06-27T15:07:53.647Z,34.20
2019-06-27T15:10:22.377Z,34.10
2019-06-27T15:12:56.890Z,34.90
2019-06-27T15:15:20.994Z,32.80
2019-06-27T15:17:49.486Z,32.60
2019-06-27T15:20:18.133Z,33.10
2019-06-27T15:22:46.830Z,32.70
2019-06-27T15:25:15.746Z,32.40
2019-06-27T15:27:44.735Z,32.30
2019-06-27T15:30:13.359Z,31.10
2019-06-27T15:32:41.840Z,31.40
2019-06-27T15:35:10.466Z,32.10
2019-06-27T15:37:38.895Z,31.50
2019-06-27T15:40:08.111Z,29.30
2019-06-27T15:42:36.853Z,29.50
2019-06-27T15:45:07.843Z,29.30
2019-06-27T15:47:36.303Z,28.90
2019-06-27T15:50:07.007Z,29.50
2019-06-27T15:52:35.928Z,27.80
2019-06-27T15:55:07.088Z,28.70
2019-06-27T15:57:36.065Z,28.60
2019-06-27T16:00:09.686Z,27.90
2019-06-27T16:02:38.194Z,28.40
2019-06-27T16:05:07.552Z,27.90
2019-06-27T16:07:36.365Z,27.70
2019-06-27T16:10:07.040Z,27.40
2019-06-27T16:12:35.605Z,27.60
2019-06-27T16:15:08.743Z,28.10
2019-06-27T16:17:37.147Z,28.00
2019-06-27T16:20:08.022Z,27.80
2019-06-27T16:22:37.080Z,27.30
2019-06-27T16:25:07.641Z,27.50
2019-06-27T16:27:36.038Z,27.40
2019-06-27T16:30:07.461Z,26.70
2019-06-27T16:32:36.156Z,26.70
2019-06-27T16:35:06.410Z,27.60
2019-06-27T16:37:34.852Z,27.70
2019-06-27T16:40:07.319Z,28.30
2019-06-27T16:42:35.968Z,28.00
2019-06-27T16:45:08.368Z,28.40
2019-06-27T16:47:36.870Z,28.50
2019-06-27T16:50:05.507Z,29.00
2019-06-27T16:52:34.384Z,29.40
2019-06-27T16:55:03.117Z,29.10
2019-06-27T16:57:31.893Z,29.40
2019-06-27T17:00:00.526Z,28.50
2019-06-27T17:02:29.010Z,28.60
2019-06-27T17:04:57.438Z,28.60
2019-06-27T17:07:27.545Z,28.70
2019-06-27T17:09:55.947Z,28.60
2019-06-27T17:12:24.629Z,28.80
2019-06-27T17:14:53.405Z,28.90
2019-06-27T17:17:23.080Z,29.30
2019-06-27T17:19:51.821Z,29.40
2019-06-27T17:22:20.423Z,28.80
2019-06-27T17:24:48.997Z,29.10
2019-06-27T17:27:17.423Z,28.60
2019-06-27T17:29:45.910Z,28.50
2019-06-27T17:32:14.359Z,28.80
2019-06-27T17:34:43.035Z,28.80
2019-06-27T17:37:11.724Z,28.10
2019-06-27T17:39:40.538Z,27.70
2019-06-27T17:42:08.954Z,27.80
2019-06-27T17:44:37.926Z,27.70
2019-06-27T17:47:06.587Z,28.00
2019-06-27T17:49:35.415Z,27.80
2019-06-27T17:52:04.181Z,28.20
2019-06-27T17:54:32.886Z,28.10
2019-06-27T17:57:01.288Z,27.60
2019-06-27T17:59:30.051Z,27.90
2019-06-27T18:01:58.510Z,27.60
2019-06-27T18:04:27.239Z,27.40
2019-06-27T18:06:56.178Z,27.50
2019-06-27T18:09:24.590Z,27.70
2019-06-27T18:11:52.996Z,27.90
2019-06-27T18:14:22.445Z,28.20
2019-06-27T18:16:51.181Z,28.30
2019-06-27T18:19:19.649Z,28.00
2019-06-27T18:21:48.355Z,28.50
2019-06-27T18:24:18.713Z,27.00
2019-06-27T18:26:47.118Z,27.50
2019-06-27T18:29:15.840Z,27.70
2019-06-27T18:31:44.459Z,26.90
2019-06-27T18:34:12.886Z,26.00
2019-06-27T18:36:41.337Z,26.30
2019-06-27T18:39:10.227Z,26.20
2019-06-27T18:41:39.098Z,26.40
2019-06-27T18:44:07.555Z,27.00
2019-06-27T18:46:36.322Z,27.00
2019-06-27T18:49:04.831Z,27.70
2019-06-27T18:51:34.724Z,28.50
2019-06-27T18:54:03.162Z,28.60
2019-06-27T18:56:31.625Z,29.00
2019-06-27T18:59:00.447Z,29.40
2019-06-27T19:01:29.156Z,29.20
2019-06-27T19:03:57.538Z,30.00
2019-06-27T19:06:26.298Z,31.20
2019-06-27T19:08:54.987Z,31.90
2019-06-27T19:11:23.397Z,33.90
2019-06-27T19:13:52.054Z,34.20
2019-06-27T19:16:20.465Z,34.50
2019-06-27T19:18:53.416Z,35.40
2019-06-27T19:21:38.601Z,35.60
2019-06-27T19:24:20.570Z,35.40
2019-06-27T19:26:51.139Z,36.10
2019-06-27T19:29:19.876Z,36.40
2019-06-27T19:31:48.285Z,36.60
2019-06-27T19:34:17.112Z,37.00
2019-06-27T19:36:46.075Z,37.20
2019-06-27T19:39:15.323Z,36.80
2019-06-27T19:41:43.813Z,36.90
2019-06-27T19:44:12.606Z,37.00
2019-06-27T19:46:41.201Z,36.40
2019-06-27T19:49:10.721Z,36.50
2019-06-27T19:51:39.477Z,36.90
2019-06-27T19:54:09.496Z,37.50
2019-06-27T19:56:38.786Z,37.50
2019-06-27T19:59:07.510Z,37.20
2019-06-27T20:01:35.925Z,37.70
2019-06-27T20:04:04.679Z,37.90
2019-06-27T20:06:33.186Z,38.20
2019-06-27T20:09:01.934Z,39.00
2019-06-27T20:11:30.412Z,39.30
2019-06-27T20:13:59.117Z,39.60
2019-06-27T20:16:27.830Z,39.30
2019-06-27T20:18:56.600Z,39.60
2019-06-27T20:21:25.811Z,39.30
2019-06-27T20:23:54.614Z,39.50
2019-06-27T20:26:23.165Z,39.70
2019-06-27T20:28:51.716Z,39.70
2019-06-27T20:31:20.935Z,39.20
2019-06-27T20:33:49.630Z,39.50
2019-06-27T20:36:18.119Z,39.80
2019-06-27T20:38:46.853Z,39.20
2019-06-27T20:41:15.772Z,39.20
2019-06-27T20:43:44.461Z,39.00
2019-06-27T20:46:13.193Z,39.20
2019-06-27T20:48:41.635Z,39.60
2019-06-27T20:51:10.074Z,39.80
2019-06-27T20:53:38.476Z,39.90
2019-06-27T20:56:07.392Z,39.70
2019-06-27T20:58:36.163Z,39.60
2019-06-27T21:01:04.753Z,40.00
2019-06-27T21:03:33.252Z,39.80
2019-06-27T21:06:01.669Z,40.20
2019-06-27T21:08:30.542Z,40.60
2019-06-27T21:10:59.412Z,40.60
2019-06-27T21:13:27.842Z,40.80
2019-06-27T21:15:56.291Z,40.50
2019-06-27T21:18:25.114Z,40.40
2019-06-27T21:20:53.516Z,40.60
2019-06-27T21:23:22.270Z,40.50
2019-06-27T21:25:51.194Z,40.30
2019-06-27T21:28:19.641Z,40.70
2019-06-27T21:30:48.309Z,40.50
2019-06-27T21:33:16.754Z,41.00
2019-06-27T21:35:45.938Z,40.80
2019-06-27T21:38:15.095Z,41.50
2019-06-27T21:40:45.331Z,41.20
2019-06-27T21:43:13.757Z,41.60
2019-06-27T21:45:42.168Z,41.50
2019-06-27T21:48:10.674Z,41.60
2019-06-27T21:50:39.075Z,40.90
2019-06-27T21:53:07.493Z,41.00
2019-06-27T21:55:36.017Z,41.00
2019-06-27T21:58:05.172Z,41.20
2019-06-27T22:00:35.366Z,41.10
2019-06-27T22:03:04.214Z,41.70
2019-06-27T22:05:32.644Z,41.80
2019-06-27T22:08:01.441Z,42.10
2019-06-27T22:10:30.664Z,41.90
2019-06-27T22:12:59.066Z,42.40
2019-06-27T22:15:27.823Z,42.30
2019-06-27T22:17:56.631Z,42.70
2019-06-27T22:20:25.224Z,42.40
2019-06-27T22:22:53.652Z,42.60
2019-06-27T22:25:22.087Z,42.30
2019-06-27T22:27:50.500Z,42.70
2019-06-27T22:30:19.796Z,42.90
2019-06-27T22:32:48.230Z,42.80
2019-06-27T22:35:16.881Z,42.70
2019-06-27T22:38:03.956Z,42.60
2019-06-27T22:40:50.525Z,42.40
2019-06-27T22:43:36.825Z,42.40
2019-06-27T22:46:23.162Z,43.20
2019-06-27T22:48:51.494Z,43.50
2019-06-27T22:51:21.848Z,43.30
2019-06-27T22:53:55.028Z,43.50
2019-06-27T22:56:23.827Z,43.40
2019-06-27T22:58:52.670Z,43.60
2019-06-27T23:01:21.401Z,43.90
2019-06-27T23:03:49.861Z,44.10
2019-06-27T23:06:18.285Z,44.20
2019-06-27T23:08:47.104Z,44.40
2019-06-27T23:11:15.659Z,44.80
2019-06-27T23:13:45.852Z,44.60
2019-06-27T23:16:14.795Z,44.50
2019-06-27T23:18:43.261Z,44.60
2019-06-27T23:21:12.181Z,44.60
2019-06-27T23:23:40.595Z,44.90
2019-06-27T23:26:09.338Z,44.90
2019-06-27T23:28:37.761Z,45.00
2019-06-27T23:31:06.200Z,45.20
2019-06-27T23:33:34.653Z,45.40
2019-06-27T23:36:03.893Z,45.80
2019-06-27T23:38:32.309Z,45.90
2019-06-27T23:41:02.785Z,46.00
2019-06-27T23:43:31.516Z,45.90
2019-06-27T23:45:59.992Z,46.10
2019-06-27T23:48:28.450Z,46.20
2019-06-27T23:50:57.708Z,46.30
2019-06-27T23:53:26.122Z,46.40
2019-06-27T23:55:54.719Z,46.20
2019-06-27T23:58:23.138Z,46.30
